Time;durP1;ratioP1;P1;durP2;ratioP2;P2;SDS_P1;SDS_P2;PMS_P1;PMS_P2;Temp;Humidity;BMP_temperature;BMP_pressure;BME280_temperature;BME280_humidity;BME280_pressure;Samples;Min_cycle;Max_cycle;Signal;HPM_P1;HPM_P2
2021/06/11 00:04:59;;;;;;;3.90;2.90;;;22.90;61.40;;;;;;10421496;28;20033;-61
2021/06/11 00:10:06;;;;;;;3.83;2.30;;;22.90;61.40;;;;;;10421438;28;20017;-62
2021/06/11 00:15:09;;;;;;;4.22;3.08;;;22.90;61.50;;;;;;10421660;28;20037;-61
2021/06/11 00:20:10;;;;;;;5.35;3.33;;;22.90;61.40;;;;;;10421421;28;20084;-61
2021/06/11 00:25:15;;;;;;;3.50;2.47;;;22.90;61.50;;;;;;10420262;28;20034;-61
2021/06/11 00:30:19;;;;;;;3.85;2.83;;;22.90;61.60;;;;;;10419666;28;20037;-61
2021/06/11 00:35:20;;;;;;;3.50;3.00;;;22.90;61.60;;;;;;10420341;28;20041;-61
2021/06/11 00:40:20;;;;;;;3.53;2.90;;;22.90;61.60;;;;;;10420357;28;20033;-61
2021/06/11 00:45:21;;;;;;;3.88;2.53;;;22.90;61.50;;;;;;10427208;28;20543;-61
2021/06/11 00:50:25;;;;;;;3.58;2.70;;;22.90;61.50;;;;;;10416762;28;20459;-62
2021/06/11 00:55:26;;;;;;;4.22;2.55;;;22.90;61.50;;;;;;10416829;28;20052;-61
2021/06/11 01:00:27;;;;;;;4.22;2.58;;;22.90;61.50;;;;;;10416098;28;20052;-61
2021/06/11 01:05:28;;;;;;;2.70;2.25;;;22.90;61.50;;;;;;10415764;28;20025;-61
2021/06/11 01:10:30;;;;;;;3.28;2.60;;;22.90;61.40;;;;;;10407896;28;20052;-61
2021/06/11 01:15:35;;;;;;;3.65;2.72;;;22.90;61.40;;;;;;10411632;28;20072;-62
2021/06/11 01:20:36;;;;;;;3.35;2.65;;;22.90;61.40;;;;;;10415230;28;20113;-61
2021/06/11 01:25:42;;;;;;;4.18;2.95;;;22.90;62.90;;;;;;10414961;28;20030;-61
2021/06/11 01:30:43;;;;;;;3.78;2.88;;;22.90;63.60;;;;;;10416534;28;20109;-61
2021/06/11 01:35:57;;;;;;;3.10;2.65;;;23.00;64.40;;;;;;10414735;28;20030;-61
2021/06/11 01:40:59;;;;;;;4.57;3.22;;;23.00;64.20;;;;;;10417159;28;20466;-61
2021/06/11 01:46:00;;;;;;;3.00;2.47;;;23.00;64.50;;;;;;10414645;28;69072;-61
2021/06/11 01:51:01;;;;;;;3.75;3.05;;;23.00;64.20;;;;;;10416576;28;20041;-61
2021/06/11 01:56:03;;;;;;;3.35;2.65;;;23.00;64.30;;;;;;10416244;28;20026;-61
2021/06/11 02:01:04;;;;;;;3.83;2.90;;;22.90;64.20;;;;;;10416179;28;20046;-62
2021/06/11 02:06:06;;;;;;;3.72;2.65;;;22.90;64.10;;;;;;10416086;28;20030;-61
2021/06/11 02:11:07;;;;;;;3.40;3.10;;;22.90;64.40;;;;;;10402591;28;20053;-61
2021/06/11 02:16:10;;;;;;;3.78;3.00;;;22.90;64.00;;;;;;10415122;28;20028;-61
2021/06/11 02:21:13;;;;;;;3.53;3.22;;;22.90;64.20;;;;;;10399289;28;20040;-61
2021/06/11 02:26:15;;;;;;;2.95;2.65;;;22.90;64.10;;;;;;10415039;28;20029;-61
2021/06/11 02:31:17;;;;;;;3.60;2.97;;;22.90;63.80;;;;;;10416179;28;20087;-61
2021/06/11 02:36:18;;;;;;;3.40;2.72;;;22.90;63.70;;;;;;10414471;28;20025;-61
2021/06/11 02:41:23;;;;;;;3.55;2.85;;;22.90;63.80;;;;;;10419721;28;20118;-61
2021/06/11 02:46:34;;;;;;;3.72;3.20;;;22.80;63.80;;;;;;10417637;28;20398;-62
2021/06/11 02:51:43;;;;;;;3.22;2.90;;;22.80;63.60;;;;;;10414309;28;20107;-63
2021/06/11 02:56:52;;;;;;;3.13;2.70;;;22.90;63.60;;;;;;10402925;28;20375;-61
2021/06/11 03:02:03;;;;;;;4.78;3.20;;;22.80;63.40;;;;;;10413454;28;20363;-62
2021/06/11 03:07:05;;;;;;;3.22;2.72;;;22.80;63.40;;;;;;10413325;28;20022;-61
2021/06/11 03:12:06;;;;;;;4.75;3.03;;;22.80;63.60;;;;;;10410360;28;20143;-62
2021/06/11 03:17:09;;;;;;;4.40;3.08;;;22.80;63.50;;;;;;10412139;28;20120;-62
2021/06/11 03:22:18;;;;;;;3.63;3.20;;;22.80;63.40;;;;;;10413328;28;20029;-62
2021/06/11 03:27:55;;;;;;;4.35;3.78;;;22.80;63.50;;;;;;10414228;28;20040;-62
2021/06/11 03:33:07;;;;;;;3.55;2.97;;;22.80;63.30;;;;;;10412994;28;20100;-62
2021/06/11 03:38:11;;;;;;;3.85;3.17;;;22.80;63.30;;;;;;10413138;28;20056;-61
2021/06/11 03:43:14;;;;;;;4.05;3.60;;;22.80;63.40;;;;;;10401672;28;20053;-62
2021/06/11 03:48:16;;;;;;;3.70;3.20;;;22.80;63.40;;;;;;10412723;28;20152;-62
2021/06/11 03:53:21;;;;;;;4.10;3.70;;;22.80;63.30;;;;;;10412914;28;20377;-62
2021/06/11 03:58:38;;;;;;;3.72;3.10;;;22.70;63.30;;;;;;10413791;28;20045;-61
2021/06/11 04:03:42;;;;;;;3.50;2.58;;;22.80;63.30;;;;;;10413937;28;20029;-62
2021/06/11 04:08:43;;;;;;;3.50;3.08;;;22.70;63.20;;;;;;10412274;28;20548;-61
2021/06/11 04:13:51;;;;;;;4.07;3.42;;;22.70;63.00;;;;;;10413351;28;20029;-61
2021/06/11 04:18:57;;;;;;;4.05;3.30;;;22.70;63.00;;;;;;10412546;28;20053;-62
2021/06/11 04:24:06;;;;;;;3.78;2.50;;;22.70;62.90;;;;;;10413439;28;20451;-61
2021/06/11 04:29:12;;;;;;;3.70;2.95;;;22.70;62.90;;;;;;10413703;28;20128;-62
2021/06/11 04:34:17;;;;;;;3.05;2.55;;;22.70;62.90;;;;;;10419597;28;20030;-61
2021/06/11 04:39:18;;;;;;;3.38;2.58;;;22.70;62.90;;;;;;10419359;28;20120;-61
2021/06/11 04:44:18;;;;;;;4.20;2.85;;;22.70;63.00;;;;;;10427041;28;20049;-61
2021/06/11 04:49:19;;;;;;;3.47;3.08;;;22.70;62.80;;;;;;10415624;28;20037;-62
2021/06/11 04:54:20;;;;;;;3.42;2.65;;;22.70;62.70;;;;;;10419046;28;20090;-62
2021/06/11 04:59:20;;;;;;;4.03;2.97;;;22.70;62.70;;;;;;10417262;28;20128;-60
2021/06/11 05:04:23;;;;;;;4.40;3.70;;;22.70;62.50;;;;;;10418121;28;20493;-62
2021/06/11 05:09:24;;;;;;;6.40;4.15;;;22.70;63.20;;;;;;10418325;28;20030;-60
2021/06/11 05:14:25;;;;;;;6.22;3.75;;;22.80;63.40;;;;;;10405961;28;20065;-58
2021/06/11 05:19:25;;;;;;;7.07;4.13;;;22.80;63.50;;;;;;10417791;28;20029;-59
2021/06/11 05:24:26;;;;;;;5.38;4.22;;;22.80;63.70;;;;;;10417910;28;20033;-62
2021/06/11 05:29:27;;;;;;;6.97;4.22;;;22.80;64.20;;;;;;10416663;28;20175;-60
2021/06/11 05:34:27;;;;;;;7.13;4.30;;;22.80;64.30;;;;;;10418155;28;20068;-61
2021/06/11 05:39:28;;;;;;;8.10;4.28;;;22.80;64.30;;;;;;10417841;28;20034;-64
2021/06/11 05:44:29;;;;;;;8.07;4.10;;;22.80;64.30;;;;;;10425595;28;20132;-64
2021/06/11 05:49:29;;;;;;;7.30;4.00;;;22.80;64.20;;;;;;10415339;28;20068;-64
2021/06/11 05:54:30;;;;;;;12.15;3.88;;;22.80;64.20;;;;;;10416697;28;20516;-62
2021/06/11 05:59:31;;;;;;;19.67;5.47;;;22.80;64.10;;;;;;10409330;28;20524;-57
2021/06/11 06:04:31;;;;;;;17.77;5.18;;;22.80;64.10;;;;;;10414617;28;20109;-59
2021/06/11 06:09:32;;;;;;;15.95;4.80;;;22.90;64.60;;;;;;10412554;28;20065;-64
2021/06/11 06:14:33;;;;;;;31.63;5.60;;;22.90;64.70;;;;;;10412265;28;20049;-63
2021/06/11 06:19:34;;;;;;;15.48;5.40;;;22.90;64.60;;;;;;10415017;28;20112;-63
2021/06/11 06:24:34;;;;;;;15.75;5.95;;;22.90;64.80;;;;;;10413958;28;20124;-63
2021/06/11 06:29:35;;;;;;;13.77;4.82;;;22.90;64.90;;;;;;10413083;28;20108;-63
2021/06/11 06:34:36;;;;;;;10.93;4.50;;;22.90;64.80;;;;;;10413730;28;20331;-63
2021/06/11 06:39:38;;;;;;;12.48;4.53;;;22.80;64.70;;;;;;10414030;28;20064;-59
2021/06/11 06:44:39;;;;;;;13.60;4.30;;;22.80;64.40;;;;;;10424293;28;20052;-63
2021/06/11 06:49:41;;;;;;;14.27;5.53;;;22.80;64.30;;;;;;10413432;28;20040;-66
2021/06/11 06:54:43;;;;;;;14.80;4.75;;;22.90;65.10;;;;;;10413201;28;20048;-61
2021/06/11 06:59:44;;;;;;;9.60;4.57;;;22.90;65.50;;;;;;10413623;28;20064;-62
2021/06/11 07:04:44;;;;;;;13.63;5.38;;;22.90;65.70;;;;;;10413518;28;20507;-58
2021/06/11 07:09:45;;;;;;;12.38;6.22;;;22.90;66.20;;;;;;10411011;28;20054;-59
2021/06/11 07:14:46;;;;;;;10.43;5.22;;;23.00;66.40;;;;;;10404829;28;20024;-58
2021/06/11 07:19:46;;;;;;;14.43;5.75;;;23.00;66.00;;;;;;10414319;28;20560;-59
2021/06/11 07:24:47;;;;;;;21.10;5.72;;;23.00;64.60;;;;;;10413079;28;20516;-61
2021/06/11 07:29:50;;;;;;;13.13;5.22;;;23.00;65.00;;;;;;10413951;28;20029;-61
2021/06/11 07:34:51;;;;;;;11.65;5.05;;;23.00;65.50;;;;;;10413941;28;20561;-61
2021/06/11 07:39:52;;;;;;;7.93;5.38;;;23.00;65.50;;;;;;10412774;28;20049;-60
2021/06/11 07:44:53;;;;;;;13.35;5.00;;;23.10;65.40;;;;;;10422637;28;20045;-60
2021/06/11 07:49:53;;;;;;;7.13;4.82;;;23.10;65.50;;;;;;10412369;28;20533;-60
2021/06/11 07:54:54;;;;;;;10.98;6.15;;;23.10;65.60;;;;;;10413600;28;20033;-61
2021/06/11 07:59:55;;;;;;;9.52;5.35;;;23.10;65.50;;;;;;10413421;28;20057;-60
2021/06/11 08:04:56;;;;;;;8.63;5.05;;;23.10;65.50;;;;;;10431595;28;20134;-62
2021/06/11 08:09:58;;;;;;;10.95;5.22;;;23.10;65.50;;;;;;10421184;28;20117;-60
2021/06/11 08:14:58;;;;;;;19.02;7.43;;;23.20;65.60;;;;;;10436623;28;20032;-60
2021/06/11 08:19:59;;;;;;;11.80;4.97;;;23.20;65.60;;;;;;10419723;28;20116;-62
2021/06/11 08:25:00;;;;;;;10.57;5.32;;;23.20;65.50;;;;;;10418859;28;20026;-62
2021/06/11 08:30:00;;;;;;;11.35;5.75;;;23.20;65.30;;;;;;10421155;28;20061;-62
2021/06/11 08:35:02;;;;;;;10.50;5.80;;;23.20;65.30;;;;;;10419589;28;20036;-62
2021/06/11 08:40:04;;;;;;;8.52;6.45;;;23.20;65.20;;;;;;10419158;28;20026;-62
2021/06/11 08:45:08;;;;;;;7.22;5.05;;;23.20;65.10;;;;;;10418693;28;20057;-62
2021/06/11 08:50:10;;;;;;;9.05;6.03;;;23.20;65.10;;;;;;10419954;28;20117;-62
2021/06/11 08:55:11;;;;;;;7.50;5.22;;;23.20;65.00;;;;;;10419735;28;20406;-62
2021/06/11 09:00:14;;;;;;;8.75;4.85;;;23.20;65.00;;;;;;10418904;28;20032;-62
2021/06/11 09:05:19;;;;;;;8.85;4.93;;;23.20;64.90;;;;;;10419794;28;20029;-62
2021/06/11 09:10:23;;;;;;;6.88;5.72;;;23.20;64.90;;;;;;10411450;28;20382;-62
2021/06/11 09:15:24;;;;;;;6.55;4.47;;;23.20;64.80;;;;;;10414018;28;20021;-62
2021/06/11 09:20:40;;;;;;;6.63;5.40;;;23.20;64.80;;;;;;10417019;28;20033;-58
2021/06/11 09:25:45;;;;;;;9.80;6.22;;;23.20;64.80;;;;;;10417566;28;20452;-61
2021/06/11 09:30:50;;;;;;;8.23;6.13;;;23.20;64.90;;;;;;10411840;28;20025;-61
2021/06/11 09:35:54;;;;;;;8.88;6.28;;;23.20;64.90;;;;;;10402747;28;20477;-61
2021/06/11 09:40:58;;;;;;;8.00;6.35;;;23.20;65.10;;;;;;10413194;28;20041;-60
2021/06/11 09:46:11;;;;;;;7.65;5.75;;;23.20;65.10;;;;;;10411349;28;20055;-61
2021/06/11 09:51:19;;;;;;;9.48;7.10;;;23.20;65.10;;;;;;10411610;28;20033;-61
2021/06/11 09:56:26;;;;;;;8.43;6.55;;;23.20;65.10;;;;;;10411924;28;20477;-61
2021/06/11 10:01:26;;;;;;;10.65;7.80;;;23.20;65.10;;;;;;10411150;28;20037;-62
2021/06/11 10:06:29;;;;;;;12.40;7.75;;;23.30;65.10;;;;;;10408933;28;20082;-62
2021/06/11 10:11:31;;;;;;;7.63;6.22;;;23.30;65.10;;;;;;10409070;28;20061;-62
2021/06/11 10:16:32;;;;;;;9.63;7.15;;;23.30;65.00;;;;;;10408782;28;20048;-62
2021/06/11 10:21:33;;;;;;;8.95;7.18;;;23.30;65.00;;;;;;10409047;28;20481;-61
2021/06/11 10:26:35;;;;;;;9.95;6.53;;;23.30;65.00;;;;;;10408551;28;20248;-61
2021/06/11 10:31:37;;;;;;;10.65;7.13;;;23.30;64.90;;;;;;10408677;28;20029;-60
2021/06/11 10:36:44;;;;;;;7.07;6.35;;;23.30;65.00;;;;;;10392074;28;20057;-62
2021/06/11 10:42:09;;;;;;;12.80;7.80;;;23.30;64.90;;;;;;10415880;28;20036;-62
2021/06/11 10:47:15;;;;;;;9.20;6.93;;;23.30;64.90;;;;;;10397799;28;20045;-63
2021/06/11 10:52:45;;;;;;;9.23;7.32;;;23.30;65.00;;;;;;10409294;28;20036;-59
2021/06/11 10:58:08;;;;;;;8.25;6.40;;;23.30;65.00;;;;;;10409133;28;20354;-63
2021/06/11 11:03:29;;;;;;;8.40;6.32;;;23.30;65.00;;;;;;10396248;28;20037;-62
2021/06/11 11:08:49;;;;;;;9.40;7.43;;;23.40;65.10;;;;;;10409228;28;20484;-63
2021/06/11 11:13:50;;;;;;;7.82;6.68;;;23.30;65.10;;;;;;10406919;28;20033;-62
2021/06/11 11:18:52;;;;;;;8.38;7.10;;;23.40;65.20;;;;;;10407057;28;20048;-63
2021/06/11 11:24:00;;;;;;;8.18;7.25;;;23.40;65.10;;;;;;10407986;28;20473;-62
2021/06/11 11:29:01;;;;;;;8.75;7.03;;;23.40;65.40;;;;;;10408321;28;20113;-62
2021/06/11 11:34:02;;;;;;;11.68;7.25;;;23.40;65.20;;;;;;10408064;28;20021;-62
2021/06/11 11:39:09;;;;;;;8.32;6.90;;;23.40;65.10;;;;;;10411652;28;20029;-62
2021/06/11 11:44:10;;;;;;;9.57;7.72;;;23.40;65.20;;;;;;10424980;28;20050;-61
2021/06/11 11:49:12;;;;;;;8.10;6.32;;;23.40;65.10;;;;;;10415888;28;20037;-60
2021/06/11 11:54:13;;;;;;;8.57;6.97;;;23.40;65.10;;;;;;10415506;28;20087;-62
2021/06/11 11:59:14;;;;;;;8.57;7.38;;;23.40;65.20;;;;;;10414483;28;20037;-62
2021/06/11 12:04:14;;;;;;;8.70;6.70;;;23.50;65.30;;;;;;10430696;28;20045;-61
2021/06/11 12:09:15;;;;;;;8.75;7.15;;;23.50;65.10;;;;;;10414863;28;20112;-61
2021/06/11 12:14:16;;;;;;;7.55;6.22;;;23.50;65.10;;;;;;10414239;28;20059;-57
2021/06/11 12:19:17;;;;;;;12.45;7.93;;;23.50;65.10;;;;;;10429370;28;20041;-62
2021/06/11 12:24:18;;;;;;;16.30;6.43;;;23.50;65.60;;;;;;10413920;28;20044;-61
2021/06/11 12:29:20;;;;;;;11.73;7.32;;;23.60;66.10;;;;;;10413860;28;20041;-62
2021/06/11 12:34:21;;;;;;;13.07;7.57;;;23.60;66.20;;;;;;10413756;28;20033;-60
2021/06/11 12:39:22;;;;;;;13.73;7.65;;;23.60;66.30;;;;;;10428777;28;20474;-60
2021/06/11 12:44:22;;;;;;;13.70;7.93;;;23.60;66.30;;;;;;10423190;28;20111;-61
2021/06/11 12:49:27;;;;;;;11.70;7.40;;;23.60;66.30;;;;;;10412615;28;20033;-62
2021/06/11 12:54:27;;;;;;;13.07;8.50;;;23.70;66.60;;;;;;10411901;28;20034;-61
2021/06/11 12:59:28;;;;;;;16.83;7.82;;;23.70;66.80;;;;;;10412119;28;20472;-61
2021/06/11 13:04:29;;;;;;;20.65;8.43;;;23.70;66.80;;;;;;10412421;28;20389;-59
2021/06/11 13:09:30;;;;;;;17.42;8.20;;;23.80;66.70;;;;;;10411186;28;20033;-58
2021/06/11 13:14:30;;;;;;;18.88;7.80;;;23.70;66.50;;;;;;10412599;28;20022;-61
2021/06/11 13:19:31;;;;;;;24.00;8.32;;;23.80;66.80;;;;;;10407230;28;20045;-57
2021/06/11 13:24:32;;;;;;;14.73;8.45;;;23.80;67.10;;;;;;10411641;28;20037;-56
2021/06/11 13:29:33;;;;;;;19.20;7.68;;;23.80;67.20;;;;;;10410067;28;20041;-59
2021/06/11 13:34:34;;;;;;;12.80;7.97;;;23.80;67.30;;;;;;10423718;28;20567;-58
2021/06/11 13:39:34;;;;;;;14.80;8.27;;;23.80;67.30;;;;;;10409907;28;20056;-60
2021/06/11 13:44:36;;;;;;;14.05;7.78;;;23.80;67.60;;;;;;10410878;28;20466;-58
2021/06/11 13:49:37;;;;;;;14.80;8.32;;;23.90;67.70;;;;;;10425889;28;20119;-58
2021/06/11 13:54:40;;;;;;;9.57;7.63;;;23.80;67.70;;;;;;10407978;28;20064;-59
2021/06/11 13:59:41;;;;;;;15.48;7.78;;;23.90;68.20;;;;;;10410429;28;20030;-61
2021/06/11 14:04:41;;;;;;;11.45;7.07;;;23.90;67.80;;;;;;10409361;28;20044;-60
2021/06/11 14:09:42;;;;;;;15.73;7.60;;;23.90;67.70;;;;;;10409801;28;20438;-60
2021/06/11 14:14:43;;;;;;;11.85;7.72;;;23.80;67.50;;;;;;10410351;28;20064;-59
2021/06/11 14:19:44;;;;;;;10.43;7.03;;;23.90;67.40;;;;;;10410086;28;20221;-59
2021/06/11 14:24:45;;;;;;;10.20;7.93;;;23.90;67.20;;;;;;10424649;28;20128;-60
2021/06/11 14:29:46;;;;;;;10.35;7.45;;;23.90;66.70;;;;;;10409779;28;20037;-63
2021/06/11 14:34:50;;;;;;;9.55;7.20;;;23.90;66.50;;;;;;10414310;28;20036;-62
2021/06/11 14:39:51;;;;;;;6.78;5.70;;;23.90;66.50;;;;;;10414436;28;20029;-62
2021/06/11 14:44:52;;;;;;;9.18;6.88;;;23.90;66.10;;;;;;10425002;28;20057;-62
2021/06/11 14:49:53;;;;;;;6.07;5.05;;;23.90;65.90;;;;;;10414975;28;20113;-59
2021/06/11 14:54:56;;;;;;;7.05;5.50;;;23.90;65.60;;;;;;10414666;28;20109;-62
2021/06/11 14:59:58;;;;;;;6.13;4.85;;;23.90;64.80;;;;;;10411512;28;20128;-62
2021/06/11 15:04:59;;;;;;;6.20;4.90;;;23.90;65.10;;;;;;10412835;28;20029;-62
2021/06/11 15:09:59;;;;;;;5.88;4.70;;;23.80;65.00;;;;;;10412507;28;20052;-62
2021/06/11 15:15:00;;;;;;;6.43;4.63;;;23.90;64.90;;;;;;10396029;28;20441;-61
2021/06/11 15:20:02;;;;;;;5.28;4.03;;;23.80;64.70;;;;;;10414605;28;20065;-57
2021/06/11 15:25:05;;;;;;;7.63;3.90;;;23.90;64.50;;;;;;10413838;28;20731;-58
2021/06/11 15:30:06;;;;;;;4.10;3.70;;;23.90;64.20;;;;;;10413613;28;20382;-61
2021/06/11 15:35:08;;;;;;;4.68;4.22;;;23.80;64.30;;;;;;10413755;28;20025;-62
2021/06/11 15:40:09;;;;;;;4.80;3.50;;;23.80;64.40;;;;;;10413762;28;20033;-61
2021/06/11 15:45:11;;;;;;;4.20;3.40;;;23.80;64.50;;;;;;10422749;28;20049;-62
2021/06/11 15:50:12;;;;;;;4.88;4.05;;;23.80;64.50;;;;;;10411615;28;20053;-61
2021/06/11 15:55:13;;;;;;;6.93;4.40;;;23.80;64.60;;;;;;10428468;28;20071;-59
2021/06/11 16:00:14;;;;;;;6.90;4.93;;;23.80;64.60;;;;;;10413248;28;20537;-57
2021/06/11 16:05:15;;;;;;;7.18;3.85;;;23.80;64.20;;;;;;10413786;28;20417;-58
2021/06/11 16:10:16;;;;;;;5.97;4.05;;;23.80;63.90;;;;;;10416938;28;20036;-59
2021/06/11 16:15:17;;;;;;;7.78;3.65;;;23.80;63.80;;;;;;10413151;28;20355;-57
2021/06/11 16:20:18;;;;;;;8.02;4.30;;;23.80;63.40;;;;;;10413182;28;20037;-59
2021/06/11 16:25:19;;;;;;;5.82;4.30;;;23.90;63.30;;;;;;10414882;28;20030;-62
2021/06/11 16:30:20;;;;;;;7.65;4.18;;;23.90;63.10;;;;;;10419856;28;20037;-62
2021/06/11 16:35:21;;;;;;;8.68;3.50;;;23.80;63.50;;;;;;10420309;28;20049;-62
2021/06/11 16:40:22;;;;;;;5.20;4.18;;;23.80;64.10;;;;;;10419847;28;20071;-62
2021/06/11 16:45:26;;;;;;;6.03;4.03;;;23.80;63.60;;;;;;10428749;28;20068;-61
2021/06/11 16:50:27;;;;;;;5.65;4.05;;;23.80;63.70;;;;;;10419629;28;20172;-62
2021/06/11 16:55:27;;;;;;;4.38;3.47;;;23.80;63.80;;;;;;10419790;28;20075;-60
2021/06/11 17:00:28;;;;;;;6.55;3.47;;;23.80;63.80;;;;;;10419517;28;20021;-61
2021/06/11 17:05:29;;;;;;;4.25;3.78;;;23.80;63.80;;;;;;10418573;28;20040;-60
2021/06/11 17:10:30;;;;;;;6.43;3.83;;;23.80;63.70;;;;;;10418630;28;20045;-61
2021/06/11 17:15:31;;;;;;;6.60;3.70;;;23.80;63.90;;;;;;10418173;28;20037;-60
2021/06/11 17:20:33;;;;;;;3.67;3.13;;;23.80;63.80;;;;;;10418741;28;20029;-59
2021/06/11 17:25:39;;;;;;;4.97;3.35;;;23.80;63.80;;;;;;10418068;28;20032;-59
2021/06/11 17:30:40;;;;;;;4.50;3.53;;;23.80;64.00;;;;;;10414681;28;20035;-60
2021/06/11 17:35:41;;;;;;;4.47;3.65;;;23.80;63.90;;;;;;10415446;28;20492;-60
2021/06/11 17:40:41;;;;;;;5.38;3.65;;;23.80;64.20;;;;;;10416877;28;20486;-58
2021/06/11 17:45:44;;;;;;;5.82;4.03;;;23.80;64.00;;;;;;10417541;28;20409;-60
2021/06/11 17:50:45;;;;;;;4.70;3.85;;;23.80;64.00;;;;;;10417569;28;20042;-60
2021/06/11 17:55:48;;;;;;;5.85;3.60;;;23.80;64.10;;;;;;10417655;28;20041;-59
2021/06/11 18:00:48;;;;;;;5.32;4.35;;;23.80;64.00;;;;;;10417386;28;20036;-60
2021/06/11 18:06:13;;;;;;;5.63;3.60;;;23.80;64.10;;;;;;10417331;28;20033;-60
2021/06/11 18:11:17;;;;;;;7.80;4.28;;;23.80;64.20;;;;;;10416626;28;20029;-60
2021/06/11 18:16:29;;;;;;;7.00;4.47;;;23.80;64.40;;;;;;10416974;28;20037;-59
2021/06/11 18:21:54;;;;;;;4.15;3.47;;;23.80;64.20;;;;;;10416665;28;20037;-59
2021/06/11 18:27:09;;;;;;;5.47;3.63;;;23.80;64.20;;;;;;10416195;28;20048;-60
2021/06/11 18:32:33;;;;;;;5.35;3.97;;;23.80;64.20;;;;;;10415166;28;20195;-60
2021/06/11 18:37:57;;;;;;;5.35;3.67;;;23.80;64.20;;;;;;10415869;28;20440;-58
2021/06/11 18:43:01;;;;;;;5.85;4.55;;;23.80;64.20;;;;;;10424369;28;20033;-59
2021/06/11 18:53:33;;;;;;;7.82;4.25;;;23.80;64.20;;;;;;10414182;28;20437;-59
2021/06/11 18:58:40;;;;;;;6.03;4.40;;;23.70;64.10;;;;;;10414263;28;20041;-60
2021/06/11 19:03:40;;;;;;;4.57;3.92;;;23.80;64.10;;;;;;10414866;28;20147;-60
2021/06/11 19:08:45;;;;;;;4.60;4.10;;;23.70;64.10;;;;;;10414771;28;20201;-59
2021/06/11 19:13:58;;;;;;;6.22;3.83;;;23.70;64.10;;;;;;10414884;28;20037;-59
2021/06/11 19:19:06;;;;;;;7.97;4.57;;;23.70;64.10;;;;;;10414796;28;20033;-59
2021/06/11 19:24:19;;;;;;;6.97;4.45;;;23.70;64.10;;;;;;10414454;28;20045;-59
2021/06/11 19:29:28;;;;;;;9.88;4.97;;;23.70;64.20;;;;;;10414397;28;20052;-59
2021/06/11 19:34:29;;;;;;;6.65;4.22;;;23.70;64.20;;;;;;10425418;28;20127;-60
2021/06/11 19:39:50;;;;;;;7.25;4.97;;;23.70;64.20;;;;;;10414364;28;20032;-60
2021/06/11 19:45:17;;;;;;;8.65;4.75;;;23.70;64.20;;;;;;10418334;28;20057;-59
2021/06/11 19:50:19;;;;;;;7.00;5.15;;;23.70;64.20;;;;;;10418184;28;20034;-57
2021/06/11 19:55:54;;;;;;;8.60;5.18;;;23.70;64.20;;;;;;10413756;28;20433;-60
2021/06/11 20:01:17;;;;;;;8.50;5.32;;;23.70;64.20;;;;;;10415165;28;20613;-56
2021/06/11 20:06:21;;;;;;;6.20;4.82;;;23.70;64.30;;;;;;10421699;28;20037;-56
2021/06/11 20:11:25;;;;;;;7.95;5.47;;;23.70;64.20;;;;;;10422055;28;20450;-57
2021/06/11 20:16:28;;;;;;;8.05;5.18;;;23.70;64.30;;;;;;10421268;28;20060;-56
2021/06/11 20:21:29;;;;;;;6.70;5.35;;;23.60;64.20;;;;;;10421934;28;20544;-57
2021/06/11 20:26:30;;;;;;;7.28;4.72;;;23.60;64.20;;;;;;10418590;28;20030;-57
2021/06/11 20:31:31;;;;;;;5.97;5.13;;;23.60;64.10;;;;;;10419650;28;20033;-57
2021/06/11 20:36:32;;;;;;;8.65;5.63;;;23.60;64.10;;;;;;10418798;28;20034;-57
2021/06/11 20:41:32;;;;;;;6.28;5.32;;;23.60;64.20;;;;;;10426084;28;20039;-57
2021/06/11 20:46:33;;;;;;;6.10;5.32;;;23.60;64.10;;;;;;10421941;28;20120;-57
2021/06/11 20:51:35;;;;;;;5.85;4.43;;;23.60;64.20;;;;;;10420673;28;20033;-57
2021/06/11 20:56:36;;;;;;;7.25;5.50;;;23.60;64.20;;;;;;10419523;28;20033;-57
2021/06/11 21:01:36;;;;;;;6.15;5.22;;;23.60;64.20;;;;;;10420520;28;20152;-57
2021/06/11 21:06:37;;;;;;;5.95;4.82;;;23.60;64.10;;;;;;10419478;28;20069;-57
2021/06/11 21:11:38;;;;;;;6.18;4.85;;;23.60;64.10;;;;;;10419039;28;20036;-57
2021/06/11 21:16:39;;;;;;;5.57;4.18;;;23.60;64.20;;;;;;10419519;28;20028;-57
2021/06/11 21:21:45;;;;;;;5.78;4.60;;;23.60;64.20;;;;;;10419043;28;20036;-57
2021/06/11 21:26:45;;;;;;;7.13;4.50;;;23.60;64.10;;;;;;10418824;28;20021;-57
2021/06/11 21:31:46;;;;;;;5.90;4.55;;;23.60;64.10;;;;;;10418786;28;20116;-57
2021/06/11 21:36:47;;;;;;;6.47;4.93;;;23.60;64.10;;;;;;10418471;28;20065;-57
2021/06/11 21:41:48;;;;;;;7.68;4.85;;;23.60;64.20;;;;;;10425876;28;20041;-57
2021/06/11 21:46:50;;;;;;;4.97;4.30;;;23.60;64.10;;;;;;10418516;28;20171;-57
2021/06/11 21:51:51;;;;;;;5.15;4.13;;;23.60;64.10;;;;;;10416913;28;20025;-57
2021/06/11 21:56:52;;;;;;;5.18;4.22;;;23.60;64.10;;;;;;10417626;28;20060;-57
2021/06/11 22:01:53;;;;;;;7.20;4.28;;;23.60;64.10;;;;;;10417135;28;20461;-56
2021/06/11 22:06:54;;;;;;;5.47;4.35;;;23.50;64.10;;;;;;10417570;28;20112;-60
2021/06/11 22:11:56;;;;;;;4.28;3.78;;;23.50;64.10;;;;;;10403764;28;20114;-59
2021/06/11 22:16:57;;;;;;;6.07;5.10;;;23.50;64.10;;;;;;10417177;28;20808;-59
2021/06/11 22:21:58;;;;;;;7.07;5.20;;;23.50;64.10;;;;;;10416091;28;20029;-60
2021/06/11 22:26:58;;;;;;;7.43;4.35;;;23.50;64.10;;;;;;10416469;28;20033;-60
2021/06/11 22:31:59;;;;;;;7.95;5.93;;;23.50;64.10;;;;;;10416110;28;20033;-60
2021/06/11 22:37:01;;;;;;;4.60;3.88;;;23.50;64.10;;;;;;10416229;28;20030;-59
2021/06/11 22:42:01;;;;;;;4.60;3.92;;;23.50;64.10;;;;;;10420616;28;20029;-59
2021/06/11 22:47:02;;;;;;;4.78;3.95;;;23.50;64.00;;;;;;10398023;28;20107;-59
2021/06/11 22:52:04;;;;;;;5.13;4.32;;;23.50;64.00;;;;;;10415581;28;20053;-59
2021/06/11 22:57:05;;;;;;;4.80;3.97;;;23.50;64.00;;;;;;10415324;28;20037;-59
2021/06/11 23:02:06;;;;;;;4.82;4.32;;;23.50;64.00;;;;;;10415358;28;20033;-60
2021/06/11 23:07:06;;;;;;;5.47;4.18;;;23.50;64.10;;;;;;10415131;28;20063;-60
2021/06/11 23:12:08;;;;;;;3.60;3.22;;;23.40;64.00;;;;;;10414804;28;20029;-60
2021/06/11 23:17:09;;;;;;;4.30;3.75;;;23.50;64.00;;;;;;10414865;28;20036;-59
2021/06/11 23:22:10;;;;;;;4.00;3.38;;;23.40;64.00;;;;;;10414688;28;20108;-60
2021/06/11 23:27:13;;;;;;;5.07;3.65;;;23.40;64.00;;;;;;10414533;28;20039;-59
2021/06/11 23:32:14;;;;;;;4.55;3.78;;;23.40;64.00;;;;;;10414500;28;20103;-59
2021/06/11 23:37:15;;;;;;;4.32;3.63;;;23.40;64.00;;;;;;10413063;28;20095;-60
2021/06/11 23:42:17;;;;;;;4.25;3.85;;;23.40;64.10;;;;;;10420970;28;20041;-59
2021/06/11 23:47:18;;;;;;;4.72;3.78;;;23.40;64.00;;;;;;10396575;28;20433;-60
2021/06/11 23:52:18;;;;;;;3.95;3.35;;;23.40;64.00;;;;;;10414045;28;20063;-60
2021/06/11 23:57:19;;;;;;;4.22;3.83;;;23.40;64.00;;;;;;10412919;28;20459;-60
